sensor_id;sensor_type;location;lat;lon;timestamp;pressure;altitude;pressure_sealevel;temperature;humidity
76940;BME280;65885;55.848;35.916;2023-04-03T00:00:19;99067.91;;;5.53;71.16
76940;BME280;65885;55.848;35.916;2023-04-03T00:02:46;99066.69;;;5.65;71.28
76940;BME280;65885;55.848;35.916;2023-04-03T00:05:14;99062.97;;;5.73;70.63
76940;BME280;65885;55.848;35.916;2023-04-03T00:07:43;99066.31;;;5.78;69.82
76940;BME280;65885;55.848;35.916;2023-04-03T00:10:11;99067.09;;;5.80;69.96
76940;BME280;65885;55.848;35.916;2023-04-03T00:12:39;99068.06;;;5.78;69.29
76940;BME280;65885;55.848;35.916;2023-04-03T00:15:07;99072.53;;;5.73;69.00
76940;BME280;65885;55.848;35.916;2023-04-03T00:17:35;99070.28;;;5.61;69.19
76940;BME280;65885;55.848;35.916;2023-04-03T00:20:03;99073.16;;;5.50;69.46
76940;BME280;65885;55.848;35.916;2023-04-03T00:22:31;99071.72;;;5.40;69.49
76940;BME280;65885;55.848;35.916;2023-04-03T00:25:00;99075.41;;;5.31;70.01
76940;BME280;65885;55.848;35.916;2023-04-03T00:27:29;99064.34;;;5.23;69.79
76940;BME280;65885;55.848;35.916;2023-04-03T00:29:56;99069.72;;;5.17;70.33
76940;BME280;65885;55.848;35.916;2023-04-03T00:32:23;99068.13;;;5.11;70.45
76940;BME280;65885;55.848;35.916;2023-04-03T00:34:51;99064.81;;;5.05;70.70
76940;BME280;65885;55.848;35.916;2023-04-03T00:37:18;99071.91;;;4.98;70.90
76940;BME280;65885;55.848;35.916;2023-04-03T00:39:46;99072.03;;;4.93;71.00
76940;BME280;65885;55.848;35.916;2023-04-03T00:42:15;99079.03;;;4.90;70.88
76940;BME280;65885;55.848;35.916;2023-04-03T00:45:24;99073.97;;;4.85;70.86
76940;BME280;65885;55.848;35.916;2023-04-03T00:47:52;99075.81;;;4.80;71.18
76940;BME280;65885;55.848;35.916;2023-04-03T00:50:19;99082.72;;;4.81;71.55
76940;BME280;65885;55.848;35.916;2023-04-03T00:52:47;99079.94;;;4.89;71.55
76940;BME280;65885;55.848;35.916;2023-04-03T00:55:16;99083.16;;;4.98;71.46
76940;BME280;65885;55.848;35.916;2023-04-03T00:57:45;99081.19;;;5.08;71.35
76940;BME280;65885;55.848;35.916;2023-04-03T01:00:16;99091.34;;;5.17;70.65
76940;BME280;65885;55.848;35.916;2023-04-03T01:02:45;99094.56;;;5.27;70.27
76940;BME280;65885;55.848;35.916;2023-04-03T01:05:15;99086.50;;;5.38;70.28
76940;BME280;65885;55.848;35.916;2023-04-03T01:07:43;99077.59;;;5.46;69.89
76940;BME280;65885;55.848;35.916;2023-04-03T01:10:14;99082.66;;;5.51;69.51
76940;BME280;65885;55.848;35.916;2023-04-03T01:12:46;99071.47;;;5.49;69.51
76940;BME280;65885;55.848;35.916;2023-04-03T01:15:16;99076.81;;;5.43;69.66
76940;BME280;65885;55.848;35.916;2023-04-03T01:17:46;99072.75;;;5.33;69.44
76940;BME280;65885;55.848;35.916;2023-04-03T01:20:40;99070.41;;;5.23;69.24
76940;BME280;65885;55.848;35.916;2023-04-03T01:23:21;99065.47;;;5.13;70.00
76940;BME280;65885;55.848;35.916;2023-04-03T01:25:52;99070.91;;;5.04;70.17
76940;BME280;65885;55.848;35.916;2023-04-03T01:28:23;99063.34;;;4.94;69.80
76940;BME280;65885;55.848;35.916;2023-04-03T01:30:55;99066.13;;;4.87;70.44
76940;BME280;65885;55.848;35.916;2023-04-03T01:33:26;99065.44;;;4.80;70.76
76940;BME280;65885;55.848;35.916;2023-04-03T01:35:54;99061.28;;;4.73;70.53
76940;BME280;65885;55.848;35.916;2023-04-03T01:38:22;99063.16;;;4.66;70.73
76940;BME280;65885;55.848;35.916;2023-04-03T01:40:49;99060.69;;;4.62;70.91
76940;BME280;65885;55.848;35.916;2023-04-03T01:43:16;99064.28;;;4.56;70.78
76940;BME280;65885;55.848;35.916;2023-04-03T01:45:43;99066.06;;;4.53;71.12
76940;BME280;65885;55.848;35.916;2023-04-03T01:48:12;99068.75;;;4.50;71.24
76940;BME280;65885;55.848;35.916;2023-04-03T01:50:41;99073.06;;;4.51;71.29
76940;BME280;65885;55.848;35.916;2023-04-03T01:53:09;99072.91;;;4.57;71.57
76940;BME280;65885;55.848;35.916;2023-04-03T01:55:36;99075.25;;;4.67;71.53
76940;BME280;65885;55.848;35.916;2023-04-03T01:58:03;99074.97;;;4.80;71.32
76940;BME280;65885;55.848;35.916;2023-04-03T02:00:31;99079.03;;;4.91;71.24
76940;BME280;65885;55.848;35.916;2023-04-03T02:02:58;99078.75;;;5.02;70.66
76940;BME280;65885;55.848;35.916;2023-04-03T02:05:26;99083.72;;;5.11;70.61
76940;BME280;65885;55.848;35.916;2023-04-03T02:07:55;99075.66;;;5.20;69.79
76940;BME280;65885;55.848;35.916;2023-04-03T02:10:23;99081.63;;;5.25;69.80
76940;BME280;65885;55.848;35.916;2023-04-03T02:12:50;99079.88;;;5.26;69.86
76940;BME280;65885;55.848;35.916;2023-04-03T02:15:18;99081.72;;;5.21;69.44
76940;BME280;65885;55.848;35.916;2023-04-03T02:17:45;99085.41;;;5.12;70.01
76940;BME280;65885;55.848;35.916;2023-04-03T02:20:13;99093.41;;;5.05;70.06
76940;BME280;65885;55.848;35.916;2023-04-03T02:22:40;99090.09;;;4.98;70.20
76940;BME280;65885;55.848;35.916;2023-04-03T02:25:09;99092.88;;;4.90;70.42
76940;BME280;65885;55.848;35.916;2023-04-03T02:27:37;99097.41;;;4.84;70.46
76940;BME280;65885;55.848;35.916;2023-04-03T02:30:06;99099.25;;;4.79;70.64
76940;BME280;65885;55.848;35.916;2023-04-03T02:32:35;99095.94;;;4.72;70.90
76940;BME280;65885;55.848;35.916;2023-04-03T02:35:02;99108.16;;;4.67;70.97
76940;BME280;65885;55.848;35.916;2023-04-03T02:37:30;99097.03;;;4.62;71.00
76940;BME280;65885;55.848;35.916;2023-04-03T02:39:58;99099.72;;;4.57;70.99
76940;BME280;65885;55.848;35.916;2023-04-03T02:42:27;99088.56;;;4.54;71.14
76940;BME280;65885;55.848;35.916;2023-04-03T02:44:54;99099.00;;;4.51;71.43
76940;BME280;65885;55.848;35.916;2023-04-03T02:47:22;99102.59;;;4.47;71.62
76940;BME280;65885;55.848;35.916;2023-04-03T02:49:49;99102.53;;;4.48;71.80
76940;BME280;65885;55.848;35.916;2023-04-03T02:52:18;99099.78;;;4.56;72.00
76940;BME280;65885;55.848;35.916;2023-04-03T02:54:46;99109.91;;;4.66;71.95
76940;BME280;65885;55.848;35.916;2023-04-03T02:57:13;99103.53;;;4.80;71.91
76940;BME280;65885;55.848;35.916;2023-04-03T02:59:42;99096.31;;;4.92;71.47
76940;BME280;65885;55.848;35.916;2023-04-03T03:02:10;99092.56;;;5.04;70.84
76940;BME280;65885;55.848;35.916;2023-04-03T03:04:38;99096.66;;;5.14;70.60
76940;BME280;65885;55.848;35.916;2023-04-03T03:07:05;99099.00;;;5.23;70.12
76940;BME280;65885;55.848;35.916;2023-04-03T03:09:32;99095.41;;;5.29;70.23
76940;BME280;65885;55.848;35.916;2023-04-03T03:12:00;99100.50;;;5.32;69.65
76940;BME280;65885;55.848;35.916;2023-04-03T03:14:27;99087.63;;;5.27;69.75
76940;BME280;65885;55.848;35.916;2023-04-03T03:16:56;99101.72;;;5.19;69.44
76940;BME280;65885;55.848;35.916;2023-04-03T03:19:23;99106.25;;;5.11;69.78
76940;BME280;65885;55.848;35.916;2023-04-03T03:21:51;99099.59;;;5.00;70.15
76940;BME280;65885;55.848;35.916;2023-04-03T03:24:18;99098.91;;;4.92;70.17
76940;BME280;65885;55.848;35.916;2023-04-03T03:26:46;99092.19;;;4.84;70.32
76940;BME280;65885;55.848;35.916;2023-04-03T03:29:13;99098.44;;;4.77;70.41
76940;BME280;65885;55.848;35.916;2023-04-03T03:31:40;99105.50;;;4.70;70.66
76940;BME280;65885;55.848;35.916;2023-04-03T03:34:09;99095.25;;;4.64;70.97
76940;BME280;65885;55.848;35.916;2023-04-03T03:36:37;99112.69;;;4.59;70.94
76940;BME280;65885;55.848;35.916;2023-04-03T03:39:04;99113.66;;;4.53;71.31
76940;BME280;65885;55.848;35.916;2023-04-03T03:41:32;99115.44;;;4.51;71.16
76940;BME280;65885;55.848;35.916;2023-04-03T03:43:59;99118.16;;;4.47;71.42
76940;BME280;65885;55.848;35.916;2023-04-03T03:46:26;99115.56;;;4.45;71.67
76940;BME280;65885;55.848;35.916;2023-04-03T03:48:54;99113.81;;;4.47;71.70
76940;BME280;65885;55.848;35.916;2023-04-03T03:51:23;99122.25;;;4.57;72.08
76940;BME280;65885;55.848;35.916;2023-04-03T03:53:50;99124.59;;;4.69;72.17
76940;BME280;65885;55.848;35.916;2023-04-03T03:56:17;99120.78;;;4.82;71.92
76940;BME280;65885;55.848;35.916;2023-04-03T03:58:46;99124.81;;;4.95;71.64
76940;BME280;65885;55.848;35.916;2023-04-03T04:01:13;99123.63;;;5.09;71.83
76940;BME280;65885;55.848;35.916;2023-04-03T04:03:40;99124.22;;;5.20;71.14
76940;BME280;65885;55.848;35.916;2023-04-03T04:06:08;99125.72;;;5.30;71.21
76940;BME280;65885;55.848;35.916;2023-04-03T04:08:37;99119.47;;;5.37;70.46
76940;BME280;65885;55.848;35.916;2023-04-03T04:11:05;99124.56;;;5.40;70.07
76940;BME280;65885;55.848;35.916;2023-04-03T04:13:33;99127.25;;;5.37;70.26
76940;BME280;65885;55.848;35.916;2023-04-03T04:16:01;99125.72;;;5.30;69.92
76940;BME280;65885;55.848;35.916;2023-04-03T04:18:29;99132.81;;;5.23;69.76
76940;BME280;65885;55.848;35.916;2023-04-03T04:20:56;99127.78;;;5.16;70.23
76940;BME280;65885;55.848;35.916;2023-04-03T04:23:24;99134.03;;;5.09;70.56
76940;BME280;65885;55.848;35.916;2023-04-03T04:25:52;99126.41;;;5.01;70.50
76940;BME280;65885;55.848;35.916;2023-04-03T04:28:20;99130.91;;;4.94;70.76
76940;BME280;65885;55.848;35.916;2023-04-03T04:30:47;99138.78;;;4.90;70.91
76940;BME280;65885;55.848;35.916;2023-04-03T04:33:15;99138.97;;;4.84;70.69
76940;BME280;65885;55.848;35.916;2023-04-03T04:35:42;99134.75;;;4.78;71.15
76940;BME280;65885;55.848;35.916;2023-04-03T04:38:10;99131.34;;;4.74;71.20
76940;BME280;65885;55.848;35.916;2023-04-03T04:40:37;99130.59;;;4.71;71.32
76940;BME280;65885;55.848;35.916;2023-04-03T04:43:06;99121.09;;;4.70;71.49
76940;BME280;65885;55.848;35.916;2023-04-03T04:45:33;99118.59;;;4.65;71.72
76940;BME280;65885;55.848;35.916;2023-04-03T04:48:01;99118.59;;;4.65;72.15
76940;BME280;65885;55.848;35.916;2023-04-03T04:50:28;99127.09;;;4.72;72.06
76940;BME280;65885;55.848;35.916;2023-04-03T04:52:55;99126.84;;;4.83;72.70
76940;BME280;65885;55.848;35.916;2023-04-03T04:55:23;99128.22;;;4.99;72.50
76940;BME280;65885;55.848;35.916;2023-04-03T04:57:50;99134.75;;;5.15;72.46
76940;BME280;65885;55.848;35.916;2023-04-03T05:00:20;99130.00;;;5.31;71.91
76940;BME280;65885;55.848;35.916;2023-04-03T05:02:47;99127.91;;;5.45;71.38
76940;BME280;65885;55.848;35.916;2023-04-03T05:05:15;99131.94;;;5.57;71.29
76940;BME280;65885;55.848;35.916;2023-04-03T05:07:42;99136.88;;;5.68;71.30
76940;BME280;65885;55.848;35.916;2023-04-03T05:10:10;99136.69;;;5.74;70.97
76940;BME280;65885;55.848;35.916;2023-04-03T05:12:38;99134.13;;;5.72;70.54
76940;BME280;65885;55.848;35.916;2023-04-03T05:15:07;99130.72;;;5.70;70.17
76940;BME280;65885;55.848;35.916;2023-04-03T05:17:36;99135.19;;;5.65;70.51
76940;BME280;65885;55.848;35.916;2023-04-03T05:20:04;99131.88;;;5.60;70.49
76940;BME280;65885;55.848;35.916;2023-04-03T05:22:31;99131.94;;;5.57;70.65
76940;BME280;65885;55.848;35.916;2023-04-03T05:24:59;99133.78;;;5.53;70.54
76940;BME280;65885;55.848;35.916;2023-04-03T05:27:26;99128.66;;;5.49;71.18
76940;BME280;65885;55.848;35.916;2023-04-03T05:30:09;99128.75;;;5.46;70.73
76940;BME280;65885;55.848;35.916;2023-04-03T05:32:38;99139.22;;;5.44;70.96
76940;BME280;65885;55.848;35.916;2023-04-03T05:35:07;99140.97;;;5.42;71.33
76940;BME280;65885;55.848;35.916;2023-04-03T05:37:34;99145.38;;;5.40;71.62
76940;BME280;65885;55.848;35.916;2023-04-03T05:40:02;99154.13;;;5.38;71.68
76940;BME280;65885;55.848;35.916;2023-04-03T05:42:30;99153.25;;;5.37;71.40
76940;BME280;65885;55.848;35.916;2023-04-03T05:44:57;99155.88;;;5.37;71.31
76940;BME280;65885;55.848;35.916;2023-04-03T05:47:25;99161.06;;;5.37;71.60
76940;BME280;65885;55.848;35.916;2023-04-03T05:49:54;99157.63;;;5.37;71.76
76940;BME280;65885;55.848;35.916;2023-04-03T05:52:25;99157.63;;;5.37;71.71
76940;BME280;65885;55.848;35.916;2023-04-03T05:54:53;99157.44;;;5.43;71.64
76940;BME280;65885;55.848;35.916;2023-04-03T05:57:20;99166.75;;;5.51;71.42
76940;BME280;65885;55.848;35.916;2023-04-03T05:59:48;99170.75;;;5.65;71.88
76940;BME280;65885;55.848;35.916;2023-04-03T06:02:21;99169.53;;;5.78;71.38
76940;BME280;65885;55.848;35.916;2023-04-03T06:04:49;99165.75;;;5.91;71.10
76940;BME280;65885;55.848;35.916;2023-04-03T06:07:19;99170.59;;;6.03;70.96
76940;BME280;65885;55.848;35.916;2023-04-03T06:09:49;99169.44;;;6.15;70.84
76940;BME280;65885;55.848;35.916;2023-04-03T06:12:17;99166.50;;;6.26;70.27
76940;BME280;65885;55.848;35.916;2023-04-03T06:14:45;99171.59;;;6.30;69.32
76940;BME280;65885;55.848;35.916;2023-04-03T06:17:13;99172.53;;;6.28;69.73
76940;BME280;65885;55.848;35.916;2023-04-03T06:19:41;99170.91;;;6.24;69.27
76940;BME280;65885;55.848;35.916;2023-04-03T06:22:08;99173.69;;;6.18;69.95
76940;BME280;65885;55.848;35.916;2023-04-03T06:24:38;99180.78;;;6.13;69.76
76940;BME280;65885;55.848;35.916;2023-04-03T06:27:06;99180.00;;;6.09;70.08
76940;BME280;65885;55.848;35.916;2023-04-03T06:29:34;99175.78;;;6.05;70.15
76940;BME280;65885;55.848;35.916;2023-04-03T06:32:02;99174.09;;;6.02;70.03
76940;BME280;65885;55.848;35.916;2023-04-03T06:34:30;99169.91;;;5.98;70.92
76940;BME280;65885;55.848;35.916;2023-04-03T06:36:57;99176.00;;;5.97;70.70
76940;BME280;65885;55.848;35.916;2023-04-03T06:39:25;99178.59;;;5.97;71.25
76940;BME280;65885;55.848;35.916;2023-04-03T06:41:54;99181.16;;;5.99;70.95
76940;BME280;65885;55.848;35.916;2023-04-03T06:44:21;99187.16;;;6.01;71.65
76940;BME280;65885;55.848;35.916;2023-04-03T06:46:49;99181.13;;;6.00;71.05
76940;BME280;65885;55.848;35.916;2023-04-03T06:49:17;99182.72;;;6.04;71.52
76940;BME280;65885;55.848;35.916;2023-04-03T06:51:46;99180.06;;;6.07;71.75
76940;BME280;65885;55.848;35.916;2023-04-03T06:54:13;99184.25;;;6.13;71.74
76940;BME280;65885;55.848;35.916;2023-04-03T06:56:41;99190.16;;;6.18;71.67
76940;BME280;65885;55.848;35.916;2023-04-03T06:59:12;99189.09;;;6.25;72.21
76940;BME280;65885;55.848;35.916;2023-04-03T07:01:40;99198.38;;;6.35;71.90
76940;BME280;65885;55.848;35.916;2023-04-03T07:04:08;99190.06;;;6.52;72.26
76940;BME280;65885;55.848;35.916;2023-04-03T07:06:36;99191.19;;;6.73;72.32
76940;BME280;65885;55.848;35.916;2023-04-03T07:09:03;99189.66;;;6.94;71.95
76940;BME280;65885;55.848;35.916;2023-04-03T07:11:30;99190.81;;;7.13;71.61
76940;BME280;65885;55.848;35.916;2023-04-03T07:13:58;99185.00;;;7.32;71.59
76940;BME280;65885;55.848;35.916;2023-04-03T07:16:27;99193.81;;;7.54;71.40
76940;BME280;65885;55.848;35.916;2023-04-03T07:18:56;99188.91;;;7.71;70.70
76940;BME280;65885;55.848;35.916;2023-04-03T07:21:24;99193.81;;;7.81;69.94
76940;BME280;65885;55.848;35.916;2023-04-03T07:23:52;99195.41;;;7.85;69.96
76940;BME280;65885;55.848;35.916;2023-04-03T07:26:19;99198.84;;;7.87;69.41
76940;BME280;65885;55.848;35.916;2023-04-03T07:28:48;99196.22;;;7.87;69.47
76940;BME280;65885;55.848;35.916;2023-04-03T07:31:16;99200.59;;;7.86;68.78
76940;BME280;65885;55.848;35.916;2023-04-03T07:33:46;99196.25;;;7.85;69.43
76940;BME280;65885;55.848;35.916;2023-04-03T07:36:16;99201.59;;;7.82;69.07
76940;BME280;65885;55.848;35.916;2023-04-03T07:38:43;99205.19;;;7.78;68.98
76940;BME280;65885;55.848;35.916;2023-04-03T07:41:12;99204.34;;;7.77;68.43
76940;BME280;65885;55.848;35.916;2023-04-03T07:43:44;99205.31;;;7.75;68.66
76940;BME280;65885;55.848;35.916;2023-04-03T07:46:12;99207.19;;;7.71;68.69
76940;BME280;65885;55.848;35.916;2023-04-03T07:48:39;99202.97;;;7.67;68.27
76940;BME280;65885;55.848;35.916;2023-04-03T07:51:09;99198.72;;;7.65;69.09
76940;BME280;65885;55.848;35.916;2023-04-03T07:53:37;99201.25;;;7.66;69.03
76940;BME280;65885;55.848;35.916;2023-04-03T07:56:05;99203.00;;;7.66;69.50
76940;BME280;65885;55.848;35.916;2023-04-03T07:58:33;99209.03;;;7.68;69.48
76940;BME280;65885;55.848;35.916;2023-04-03T08:01:00;99209.81;;;7.70;69.30
76940;BME280;65885;55.848;35.916;2023-04-03T08:03:28;99204.50;;;7.73;69.62
76940;BME280;65885;55.848;35.916;2023-04-03T08:06:01;99220.91;;;7.76;69.75
76940;BME280;65885;55.848;35.916;2023-04-03T08:08:33;99212.09;;;7.81;69.67
76940;BME280;65885;55.848;35.916;2023-04-03T08:11:01;99212.75;;;7.86;69.85
76940;BME280;65885;55.848;35.916;2023-04-03T08:13:31;99209.75;;;7.98;69.94
76940;BME280;65885;55.848;35.916;2023-04-03T08:16:07;99214.50;;;8.12;69.96
76940;BME280;65885;55.848;35.916;2023-04-03T08:18:34;99208.78;;;8.25;69.22
76940;BME280;65885;55.848;35.916;2023-04-03T08:21:06;99218.59;;;8.44;69.01
76940;BME280;65885;55.848;35.916;2023-04-03T08:23:35;99212.69;;;8.62;69.36
76940;BME280;65885;55.848;35.916;2023-04-03T08:26:07;99213.75;;;8.80;69.02
76940;BME280;65885;55.848;35.916;2023-04-03T08:28:36;99215.78;;;8.95;69.03
76940;BME280;65885;55.848;35.916;2023-04-03T08:31:04;99226.88;;;9.02;68.52
76940;BME280;65885;55.848;35.916;2023-04-03T08:33:33;99226.75;;;9.05;68.47
76940;BME280;65885;55.848;35.916;2023-04-03T08:36:02;99224.06;;;9.06;68.27
76940;BME280;65885;55.848;35.916;2023-04-03T08:38:30;99223.28;;;9.04;68.24
76940;BME280;65885;55.848;35.916;2023-04-03T08:41:07;99225.03;;;9.04;68.16
76940;BME280;65885;55.848;35.916;2023-04-03T08:43:52;99230.28;;;9.04;68.27
76940;BME280;65885;55.848;35.916;2023-04-03T08:46:23;99225.97;;;9.03;68.08
76940;BME280;65885;55.848;35.916;2023-04-03T08:48:53;99238.13;;;9.04;68.21
76940;BME280;65885;55.848;35.916;2023-04-03T08:51:22;99231.97;;;9.05;67.92
76940;BME280;65885;55.848;35.916;2023-04-03T08:53:55;99238.97;;;9.04;68.16
76940;BME280;65885;55.848;35.916;2023-04-03T08:56:26;99232.88;;;9.04;67.89
76940;BME280;65885;55.848;35.916;2023-04-03T08:58:57;99233.69;;;9.06;68.04
76940;BME280;65885;55.848;35.916;2023-04-03T09:01:30;99239.81;;;9.05;68.33
76940;BME280;65885;55.848;35.916;2023-04-03T09:04:01;99240.66;;;9.05;67.85
76940;BME280;65885;55.848;35.916;2023-04-03T09:06:31;99252.00;;;9.06;67.88
76940;BME280;65885;55.848;35.916;2023-04-03T09:09:11;99251.03;;;9.08;68.13
76940;BME280;65885;55.848;35.916;2023-04-03T09:11:49;99256.13;;;9.11;68.21
76940;BME280;65885;55.848;35.916;2023-04-03T09:14:27;99257.75;;;9.15;68.47
76940;BME280;65885;55.848;35.916;2023-04-03T09:17:00;99261.06;;;9.19;68.37
76940;BME280;65885;55.848;35.916;2023-04-03T09:19:38;99255.78;;;9.21;67.84
76940;BME280;65885;55.848;35.916;2023-04-03T09:22:16;99261.06;;;9.19;67.93
76940;BME280;65885;55.848;35.916;2023-04-03T09:24:45;99261.16;;;9.17;68.29
76940;BME280;65885;55.848;35.916;2023-04-03T09:27:15;99260.09;;;9.22;68.40
76940;BME280;65885;55.848;35.916;2023-04-03T09:29:44;99259.16;;;9.24;68.33
76940;BME280;65885;55.848;35.916;2023-04-03T09:32:21;99258.22;;;9.25;68.10
76940;BME280;65885;55.848;35.916;2023-04-03T09:34:52;99254.47;;;9.32;68.21
76940;BME280;65885;55.848;35.916;2023-04-03T09:37:35;99258.34;;;9.44;68.45
76940;BME280;65885;55.848;35.916;2023-04-03T09:40:05;99249.88;;;9.59;68.92
76940;BME280;65885;55.848;35.916;2023-04-03T09:42:39;99247.28;;;9.80;69.03
76940;BME280;65885;55.848;35.916;2023-04-03T09:45:21;99241.09;;;10.02;68.87
76940;BME280;65885;55.848;35.916;2023-04-03T09:48:04;99245.69;;;10.18;68.43
76940;BME280;65885;55.848;35.916;2023-04-03T09:50:33;99246.16;;;10.27;68.24
76940;BME280;65885;55.848;35.916;2023-04-03T09:53:05;99244.97;;;10.35;67.73
76940;BME280;65885;55.848;35.916;2023-04-03T09:55:42;99250.75;;;10.43;67.08
76940;BME280;65885;55.848;35.916;2023-04-03T09:58:26;99249.00;;;10.43;66.95
76940;BME280;65885;55.848;35.916;2023-04-03T10:00:56;99247.25;;;10.42;66.49
76940;BME280;65885;55.848;35.916;2023-04-03T10:03:28;99250.16;;;10.36;66.04
76940;BME280;65885;55.848;35.916;2023-04-03T10:05:56;99251.28;;;10.31;66.03
76940;BME280;65885;55.848;35.916;2023-04-03T10:08:27;99251.47;;;10.26;66.14
76940;BME280;65885;55.848;35.916;2023-04-03T10:11:10;99252.56;;;10.20;66.47
76940;BME280;65885;55.848;35.916;2023-04-03T10:13:54;99248.38;;;10.16;66.87
76940;BME280;65885;55.848;35.916;2023-04-03T10:16:34;99253.75;;;10.13;67.06
76940;BME280;65885;55.848;35.916;2023-04-03T10:19:31;99253.75;;;10.13;67.17
76940;BME280;65885;55.848;35.916;2023-04-03T10:22:02;99246.66;;;10.15;67.40
76940;BME280;65885;55.848;35.916;2023-04-03T10:24:37;99248.44;;;10.15;67.51
76940;BME280;65885;55.848;35.916;2023-04-03T10:27:11;99258.00;;;10.16;67.15
76940;BME280;65885;55.848;35.916;2023-04-03T10:29:47;99256.16;;;10.18;67.27
76940;BME280;65885;55.848;35.916;2023-04-03T10:32:28;99258.78;;;10.18;67.53
76940;BME280;65885;55.848;35.916;2023-04-03T10:35:03;99265.94;;;10.14;67.18
76940;BME280;65885;55.848;35.916;2023-04-03T10:37:44;99264.16;;;10.15;67.52
76940;BME280;65885;55.848;35.916;2023-04-03T10:40:22;99272.72;;;10.18;67.67
76940;BME280;65885;55.848;35.916;2023-04-03T10:42:53;99276.97;;;10.22;68.00
76940;BME280;65885;55.848;35.916;2023-04-03T10:45:27;99274.94;;;10.29;67.94
76940;BME280;65885;55.848;35.916;2023-04-03T10:48:02;99273.81;;;10.35;67.55
76940;BME280;65885;55.848;35.916;2023-04-03T10:50:39;99278.09;;;10.37;67.20
76940;BME280;65885;55.848;35.916;2023-04-03T10:53:16;99292.72;;;10.43;67.58
76940;BME280;65885;55.848;35.916;2023-04-03T10:55:54;99292.41;;;10.49;67.68
76940;BME280;65885;55.848;35.916;2023-04-03T10:58:30;99294.69;;;10.56;67.71
76940;BME280;65885;55.848;35.916;2023-04-03T11:01:06;99290.97;;;10.62;67.87
76940;BME280;65885;55.848;35.916;2023-04-03T11:03:36;99284.69;;;10.66;68.09
76940;BME280;65885;55.848;35.916;2023-04-03T11:06:09;99282.59;;;10.73;67.73
76940;BME280;65885;55.848;35.916;2023-04-03T11:08:43;99279.38;;;10.87;67.82
76940;BME280;65885;55.848;35.916;2023-04-03T11:11:15;99276.00;;;11.03;67.68
76940;BME280;65885;55.848;35.916;2023-04-03T11:13:46;99274.22;;;11.23;67.52
76940;BME280;65885;55.848;35.916;2023-04-03T11:16:22;99283.91;;;11.39;66.52
76940;BME280;65885;55.848;35.916;2023-04-03T11:18:56;99275.25;;;11.56;66.21
76940;BME280;65885;55.848;35.916;2023-04-03T11:21:29;99271.53;;;11.60;65.58
76940;BME280;65885;55.848;35.916;2023-04-03T11:24:02;99267.84;;;11.64;65.32
76940;BME280;65885;55.848;35.916;2023-04-03T11:26:36;99268.69;;;11.65;65.68
76940;BME280;65885;55.848;35.916;2023-04-03T11:29:09;99264.44;;;11.62;65.50
76940;BME280;65885;55.848;35.916;2023-04-03T11:31:55;99261.03;;;11.60;65.75
76940;BME280;65885;55.848;35.916;2023-04-03T11:34:34;99255.94;;;11.57;65.50
76940;BME280;65885;55.848;35.916;2023-04-03T11:37:12;99261.25;;;11.56;65.50
76940;BME280;65885;55.848;35.916;2023-04-03T11:39:48;99250.03;;;11.52;65.10
76940;BME280;65885;55.848;35.916;2023-04-03T11:42:25;99252.75;;;11.51;65.43
76940;BME280;65885;55.848;35.916;2023-04-03T11:45:22;99241.41;;;11.50;65.62
76940;BME280;65885;55.848;35.916;2023-04-03T11:47:54;99248.47;;;11.48;65.36
76940;BME280;65885;55.848;35.916;2023-04-03T11:50:39;99254.63;;;11.49;65.74
76940;BME280;65885;55.848;35.916;2023-04-03T11:53:29;99249.56;;;11.44;65.41
76940;BME280;65885;55.848;35.916;2023-04-03T11:56:26;99242.69;;;11.42;66.17
76940;BME280;65885;55.848;35.916;2023-04-03T11:59:23;99241.84;;;11.41;65.97
76940;BME280;65885;55.848;35.916;2023-04-03T12:01:52;99233.16;;;11.39;66.20
76940;BME280;65885;55.848;35.916;2023-04-03T12:04:23;99233.16;;;11.39;65.84
76940;BME280;65885;55.848;35.916;2023-04-03T12:07:11;99235.78;;;11.39;66.18
76940;BME280;65885;55.848;35.916;2023-04-03T12:10:15;99233.25;;;11.37;65.95
76940;BME280;65885;55.848;35.916;2023-04-03T12:12:56;99232.47;;;11.35;66.18
76940;BME280;65885;55.848;35.916;2023-04-03T12:15:52;99227.16;;;11.37;66.11
76940;BME280;65885;55.848;35.916;2023-04-03T12:19:00;99230.53;;;11.39;66.02
76940;BME280;65885;55.848;35.916;2023-04-03T12:22:09;99223.47;;;11.41;66.59
76940;BME280;65885;55.848;35.916;2023-04-03T12:24:38;99225.94;;;11.44;66.88
76940;BME280;65885;55.848;35.916;2023-04-03T12:27:23;99225.78;;;11.47;67.04
76940;BME280;65885;55.848;35.916;2023-04-03T12:30:05;99231.94;;;11.46;66.93
76940;BME280;65885;55.848;35.916;2023-04-03T12:32:44;99232.88;;;11.45;66.55
76940;BME280;65885;55.848;35.916;2023-04-03T12:35:20;99228.63;;;11.43;66.75
76940;BME280;65885;55.848;35.916;2023-04-03T12:41:16;99226.22;;;11.38;66.90
76940;BME280;65885;55.848;35.916;2023-04-03T12:43:55;99226.38;;;11.35;66.78
76940;BME280;65885;55.848;35.916;2023-04-03T12:46:28;99231.69;;;11.33;67.03
76940;BME280;65885;55.848;35.916;2023-04-03T12:49:16;99224.91;;;11.29;67.18
76940;BME280;65885;55.848;35.916;2023-04-03T12:51:48;99228.53;;;11.27;67.36
76940;BME280;65885;55.848;35.916;2023-04-03T12:54:18;99229.22;;;11.30;66.95
76940;BME280;65885;55.848;35.916;2023-04-03T12:56:48;99231.47;;;11.38;66.71
76940;BME280;65885;55.848;35.916;2023-04-03T12:59:19;99238.06;;;11.47;66.49
76940;BME280;65885;55.848;35.916;2023-04-03T13:01:53;99239.31;;;11.57;65.91
76940;BME280;65885;55.848;35.916;2023-04-03T13:04:21;99240.66;;;11.65;65.71
76940;BME280;65885;55.848;35.916;2023-04-03T13:06:49;99248.16;;;11.73;65.81
76940;BME280;65885;55.848;35.916;2023-04-03T13:09:23;99262.22;;;11.72;65.38
76940;BME280;65885;55.848;35.916;2023-04-03T13:11:58;99260.09;;;11.61;65.10
76940;BME280;65885;55.848;35.916;2023-04-03T13:14:27;99268.59;;;11.49;64.62
76940;BME280;65885;55.848;35.916;2023-04-03T13:16:57;99265.75;;;11.35;64.92
76940;BME280;65885;55.848;35.916;2023-04-03T13:19:26;99275.22;;;11.20;65.29
76940;BME280;65885;55.848;35.916;2023-04-03T13:21:58;99274.91;;;11.07;65.69